createdAt,value
2019-05-18T00:02:10.189Z,11.80
2019-05-18T00:04:54.944Z,11.70
2019-05-18T00:07:39.780Z,11.70
2019-05-18T00:10:24.608Z,11.60
2019-05-18T00:13:09.349Z,11.60
2019-05-18T00:15:54.190Z,11.50
2019-05-18T00:18:39.217Z,11.60
2019-05-18T00:21:23.945Z,11.50
2019-05-18T00:24:08.866Z,11.50
2019-05-18T00:26:53.604Z,11.50
2019-05-18T00:29:39.025Z,11.50
2019-05-18T00:32:23.746Z,11.40
2019-05-18T00:35:08.776Z,11.40
2019-05-18T00:37:53.949Z,11.30
2019-05-18T00:40:38.739Z,11.40
2019-05-18T00:43:23.741Z,11.30
2019-05-18T00:46:08.546Z,11.20
2019-05-18T00:48:53.501Z,11.10
2019-05-18T00:51:38.273Z,11.20
2019-05-18T00:54:23.115Z,11.20
2019-05-18T00:57:07.867Z,11.10
2019-05-18T00:59:54.074Z,11.10
2019-05-18T01:02:38.932Z,11.10
2019-05-18T01:05:23.826Z,11.10
2019-05-18T01:08:09.137Z,11.10
2019-05-18T01:10:53.894Z,11.10
2019-05-18T01:13:38.734Z,11.10
2019-05-18T01:16:23.440Z,11.10
2019-05-18T01:19:08.531Z,11.20
2019-05-18T01:21:53.125Z,11.30
2019-05-18T01:24:37.957Z,11.40
2019-05-18T01:27:22.812Z,11.40
2019-05-18T01:30:08.651Z,11.50
2019-05-18T01:32:53.921Z,11.50
2019-05-18T01:35:38.666Z,11.50
2019-05-18T01:38:23.485Z,11.50
2019-05-18T01:41:08.200Z,11.50
2019-05-18T01:43:53.093Z,11.60
2019-05-18T01:46:37.841Z,11.60
2019-05-18T01:49:22.619Z,11.70
2019-05-18T01:52:07.674Z,11.80
2019-05-18T01:54:52.436Z,11.80
2019-05-18T01:57:37.332Z,11.90
2019-05-18T02:00:22.256Z,11.90
2019-05-18T02:03:07.469Z,12.00
2019-05-18T02:05:52.186Z,11.90
2019-05-18T02:08:37.908Z,11.90
2019-05-18T02:11:22.783Z,11.90
2019-05-18T02:14:08.277Z,11.90
2019-05-18T02:16:53.457Z,11.80
2019-05-18T02:19:38.305Z,11.80
2019-05-18T02:22:23.173Z,11.80
2019-05-18T02:25:08.103Z,11.70
2019-05-18T02:27:53.153Z,11.70
2019-05-18T02:30:38.159Z,11.70
2019-05-18T02:33:23.277Z,11.70
2019-05-18T02:36:08.141Z,11.60
2019-05-18T02:38:53.005Z,11.60
2019-05-18T02:41:38.039Z,11.60
2019-05-18T02:44:22.932Z,11.50
2019-05-18T02:47:07.710Z,11.50
2019-05-18T02:49:52.459Z,11.40
2019-05-18T02:52:37.436Z,11.40
2019-05-18T02:55:22.243Z,11.40
2019-05-18T02:58:06.975Z,11.40
2019-05-18T03:00:51.977Z,11.40
2019-05-18T03:03:36.740Z,11.40
2019-05-18T03:06:21.826Z,11.40
2019-05-18T03:09:07.070Z,11.40
2019-05-18T03:11:52.317Z,11.40
2019-05-18T03:14:37.099Z,11.40
2019-05-18T03:17:23.028Z,11.40
2019-05-18T03:20:08.708Z,11.50
2019-05-18T03:22:53.681Z,11.50
2019-05-18T03:25:38.599Z,11.60
2019-05-18T03:28:23.325Z,11.60
2019-05-18T03:31:08.149Z,11.60
2019-05-18T03:33:52.888Z,11.60
2019-05-18T03:36:37.676Z,11.60
2019-05-18T03:39:22.553Z,11.60
2019-05-18T03:42:07.167Z,11.60
2019-05-18T03:44:52.022Z,11.70
2019-05-18T03:47:36.598Z,11.60
2019-05-18T03:50:21.501Z,11.70
2019-05-18T03:53:06.349Z,11.70
2019-05-18T03:55:51.377Z,11.70
2019-05-18T03:58:36.047Z,11.80
2019-05-18T04:01:20.916Z,11.80
2019-05-18T04:04:05.660Z,11.80
2019-05-18T04:06:50.372Z,11.80
2019-05-18T04:09:35.025Z,11.70
2019-05-18T04:12:19.729Z,11.70
2019-05-18T04:15:05.693Z,11.80
2019-05-18T04:17:50.421Z,11.80
2019-05-18T04:20:35.513Z,11.80
2019-05-18T04:23:20.299Z,11.80
2019-05-18T04:26:05.035Z,11.80
2019-05-18T04:28:49.796Z,11.80
2019-05-18T04:31:34.595Z,11.80
2019-05-18T04:34:19.311Z,11.80
2019-05-18T04:37:04.181Z,11.80
2019-05-18T04:39:48.916Z,11.90
2019-05-18T04:42:33.852Z,11.90
2019-05-18T04:45:19.411Z,11.90
2019-05-18T04:48:04.372Z,11.90
2019-05-18T04:50:49.383Z,11.90
2019-05-18T04:53:34.007Z,11.90
2019-05-18T04:56:18.800Z,12.00
2019-05-18T04:59:03.648Z,12.00
2019-05-18T05:01:48.412Z,12.00
2019-05-18T05:04:33.302Z,12.00
2019-05-18T05:07:18.126Z,12.00
2019-05-18T05:10:05.157Z,12.10
2019-05-18T05:12:49.961Z,12.10
2019-05-18T05:15:34.744Z,12.10
2019-05-18T05:18:19.525Z,12.20
2019-05-18T05:21:04.458Z,12.20
2019-05-18T05:23:49.204Z,12.30
2019-05-18T05:26:34.118Z,12.30
2019-05-18T05:29:19.030Z,12.40
2019-05-18T05:32:03.877Z,12.40
2019-05-18T05:34:48.710Z,12.40
2019-05-18T05:37:33.476Z,12.50
2019-05-18T05:40:18.287Z,12.50
2019-05-18T05:43:03.029Z,12.60
2019-05-18T05:45:47.759Z,12.70
2019-05-18T05:48:32.583Z,12.70
2019-05-18T05:51:17.293Z,12.80
2019-05-18T05:54:02.445Z,12.90
2019-05-18T05:56:47.561Z,13.00
2019-05-18T05:59:33.610Z,13.10
2019-05-18T06:02:18.426Z,13.10
2019-05-18T06:05:06.148Z,13.10
2019-05-18T06:07:51.041Z,13.20
2019-05-18T06:10:35.844Z,13.40
2019-05-18T06:13:20.802Z,13.50
2019-05-18T06:16:05.608Z,13.70
2019-05-18T06:18:50.486Z,13.80
2019-05-18T06:21:35.103Z,14.00
2019-05-18T06:24:19.930Z,14.10
2019-05-18T06:27:04.725Z,14.30
2019-05-18T06:29:49.550Z,14.30
2019-05-18T06:32:34.390Z,14.40
2019-05-18T06:35:19.375Z,14.50
2019-05-18T06:38:04.303Z,14.50
2019-05-18T06:40:49.080Z,14.50
2019-05-18T06:43:33.914Z,14.50
2019-05-18T06:46:18.681Z,14.60
2019-05-18T06:49:03.551Z,14.50
2019-05-18T06:51:48.661Z,14.60
2019-05-18T06:54:33.929Z,14.70
2019-05-18T06:57:19.933Z,14.80
2019-05-18T07:00:08.835Z,14.90
2019-05-18T07:02:54.238Z,15.00
2019-05-18T07:05:39.593Z,15.10
2019-05-18T07:08:24.685Z,15.10
2019-05-18T07:11:09.777Z,15.10
2019-05-18T07:13:54.533Z,15.10
2019-05-18T07:16:39.301Z,15.00
2019-05-18T07:19:24.014Z,14.90
2019-05-18T07:22:08.749Z,15.00
2019-05-18T07:24:53.481Z,15.10
2019-05-18T07:27:38.224Z,15.20
2019-05-18T07:30:23.274Z,15.30
2019-05-18T07:33:08.506Z,15.40
2019-05-18T07:35:53.809Z,15.50
2019-05-18T07:38:38.793Z,15.50
2019-05-18T07:41:23.924Z,15.60
2019-05-18T07:44:08.623Z,15.70
2019-05-18T07:46:53.294Z,15.60
2019-05-18T07:49:38.094Z,15.80
2019-05-18T07:52:23.810Z,15.80
2019-05-18T07:55:09.311Z,16.00
2019-05-18T07:57:54.080Z,16.00
2019-05-18T08:00:38.876Z,16.30
2019-05-18T08:03:23.614Z,16.40
2019-05-18T08:06:08.427Z,16.60
2019-05-18T08:08:53.059Z,16.60
2019-05-18T08:11:38.357Z,16.70
2019-05-18T08:14:23.234Z,16.80
2019-05-18T08:17:08.110Z,16.80
2019-05-18T08:19:53.093Z,16.80
2019-05-18T08:22:37.909Z,17.00
2019-05-18T08:25:22.883Z,17.10
2019-05-18T08:28:07.732Z,17.00
2019-05-18T08:30:52.562Z,17.00
2019-05-18T08:33:37.454Z,17.10
2019-05-18T08:36:22.670Z,17.40
2019-05-18T08:39:07.539Z,17.50
2019-05-18T08:41:52.244Z,17.50
2019-05-18T08:44:37.206Z,17.70
2019-05-18T08:47:22.128Z,17.60
2019-05-18T08:50:08.491Z,17.60
2019-05-18T08:52:53.416Z,17.50
2019-05-18T08:55:38.154Z,17.50
2019-05-18T08:58:22.903Z,17.50
2019-05-18T09:01:07.698Z,17.50
2019-05-18T09:03:52.557Z,17.80
2019-05-18T09:06:37.396Z,18.00
2019-05-18T09:09:22.325Z,18.40
2019-05-18T09:12:07.250Z,18.40
2019-05-18T09:14:52.192Z,18.50
2019-05-18T09:17:37.102Z,18.80
2019-05-18T09:20:22.866Z,19.10
2019-05-18T09:23:07.598Z,19.20
2019-05-18T09:25:52.397Z,19.40
2019-05-18T09:28:37.314Z,19.70
2019-05-18T09:31:22.277Z,19.60
2019-05-18T09:34:07.196Z,19.50
2019-05-18T09:36:52.037Z,19.50
2019-05-18T09:39:36.970Z,19.30
2019-05-18T09:42:21.767Z,19.00
2019-05-18T09:45:08.164Z,19.10
2019-05-18T09:47:53.700Z,19.30
2019-05-18T09:50:38.522Z,19.40
2019-05-18T09:53:23.406Z,19.30
2019-05-18T09:56:08.236Z,19.80
2019-05-18T09:58:53.089Z,20.20
2019-05-18T10:01:38.038Z,20.50
2019-05-18T10:04:22.877Z,20.80
2019-05-18T10:07:07.605Z,20.70
2019-05-18T10:09:52.739Z,20.90
2019-05-18T10:12:37.937Z,21.00
2019-05-18T10:15:23.074Z,21.00
2019-05-18T10:18:08.013Z,21.20
2019-05-18T10:20:52.913Z,21.20
2019-05-18T10:23:40.386Z,21.30
2019-05-18T10:26:24.465Z,21.50
2019-05-18T10:29:09.416Z,21.60
2019-05-18T10:31:54.354Z,22.10
2019-05-18T10:34:39.110Z,22.40
2019-05-18T10:37:24.017Z,22.40
2019-05-18T10:40:09.410Z,22.30
2019-05-18T10:42:54.282Z,22.40
2019-05-18T10:45:39.184Z,22.40
2019-05-18T10:48:24.355Z,22.50
2019-05-18T10:51:09.141Z,22.40
2019-05-18T10:53:54.039Z,22.60
2019-05-18T10:56:39.064Z,23.00
2019-05-18T10:59:25.196Z,23.40
2019-05-18T11:02:10.086Z,23.80
2019-05-18T11:04:55.382Z,23.80
2019-05-18T11:07:40.200Z,23.10
2019-05-18T11:10:25.346Z,22.90
2019-05-18T11:13:10.482Z,23.10
2019-05-18T11:16:15.103Z,23.40
2019-05-18T11:19:00.034Z,23.60
2019-05-18T11:21:44.887Z,23.80
2019-05-18T11:24:30.245Z,24.20
2019-05-18T11:27:14.998Z,24.60
2019-05-18T11:30:00.000Z,24.80
2019-05-18T11:32:44.934Z,24.80
2019-05-18T11:35:29.702Z,25.10
2019-05-18T11:38:14.506Z,25.90
2019-05-18T11:41:00.658Z,27.00
2019-05-18T11:43:45.596Z,27.60
2019-05-18T11:46:30.485Z,28.00
2019-05-18T11:49:15.522Z,28.90
2019-05-18T11:52:00.679Z,30.10
2019-05-18T11:54:45.487Z,30.10
2019-05-18T11:57:31.236Z,30.40
2019-05-18T12:00:16.803Z,31.20
2019-05-18T12:03:01.784Z,31.00
2019-05-18T12:05:46.477Z,31.20
2019-05-18T12:08:31.286Z,31.60
2019-05-18T12:11:16.069Z,32.30
2019-05-18T12:14:00.990Z,32.10
2019-05-18T12:16:45.567Z,31.80
2019-05-18T12:19:30.346Z,32.10
2019-05-18T12:22:15.040Z,31.80
2019-05-18T12:24:59.837Z,32.40
2019-05-18T12:27:44.794Z,33.30
2019-05-18T12:30:31.185Z,34.50
2019-05-18T12:33:16.500Z,34.50
2019-05-18T12:36:01.301Z,34.40
2019-05-18T12:38:46.279Z,34.80
2019-05-18T12:41:30.941Z,34.10
2019-05-18T12:44:15.939Z,33.40
2019-05-18T12:47:00.675Z,33.80
2019-05-18T12:49:45.538Z,34.50
2019-05-18T12:52:30.472Z,34.70
2019-05-18T12:55:18.322Z,34.60
2019-05-18T12:58:03.411Z,35.20
2019-05-18T13:00:48.471Z,35.10
2019-05-18T13:03:33.225Z,35.40
2019-05-18T13:06:18.471Z,33.60
2019-05-18T13:09:05.331Z,33.90
2019-05-18T13:11:50.278Z,33.90
2019-05-18T13:14:35.244Z,34.30
2019-05-18T13:17:21.357Z,34.20
2019-05-18T13:20:07.950Z,34.30
2019-05-18T13:22:52.763Z,34.60
2019-05-18T13:25:37.712Z,34.20
2019-05-18T13:28:22.545Z,34.50
2019-05-18T13:31:07.401Z,34.90
2019-05-18T13:33:52.536Z,34.90
2019-05-18T13:36:37.191Z,34.90
2019-05-18T13:39:22.022Z,34.10
2019-05-18T13:42:06.693Z,34.10
2019-05-18T13:44:51.569Z,33.30
2019-05-18T13:47:36.613Z,33.00
2019-05-18T13:50:22.169Z,33.20
2019-05-18T13:53:07.129Z,33.80
2019-05-18T13:55:51.917Z,33.20
2019-05-18T13:58:36.718Z,32.00
2019-05-18T14:01:21.494Z,30.60
2019-05-18T14:04:12.642Z,29.00
2019-05-18T14:06:57.793Z,27.90
2019-05-18T14:09:42.630Z,27.50
2019-05-18T14:12:27.541Z,28.00
2019-05-18T14:15:12.909Z,29.30
2019-05-18T14:17:57.970Z,30.40
2019-05-18T14:20:42.754Z,31.00
2019-05-18T14:23:27.489Z,31.60
2019-05-18T14:26:12.438Z,32.00
2019-05-18T14:28:57.232Z,32.10
2019-05-18T14:31:42.006Z,31.20
2019-05-18T14:34:26.816Z,29.80
2019-05-18T14:37:11.717Z,29.10
2019-05-18T14:39:56.490Z,28.40
2019-05-18T14:42:41.574Z,27.60
2019-05-18T14:45:26.946Z,26.80
2019-05-18T14:48:11.673Z,26.20
2019-05-18T14:50:56.527Z,25.70
2019-05-18T14:53:41.860Z,25.20
2019-05-18T14:56:26.981Z,24.60
2019-05-18T14:59:12.014Z,24.00
2019-05-18T15:01:57.021Z,23.70
2019-05-18T15:04:41.761Z,23.20
2019-05-18T15:07:26.890Z,23.00
2019-05-18T15:10:12.326Z,22.80
2019-05-18T15:12:57.085Z,22.50
2019-05-18T15:15:42.253Z,22.40
2019-05-18T15:18:27.205Z,22.20
2019-05-18T15:21:12.640Z,22.00
2019-05-18T15:23:57.814Z,21.90
2019-05-18T15:26:42.717Z,21.80
2019-05-18T15:29:27.520Z,21.70
2019-05-18T15:32:12.430Z,21.60
2019-05-18T15:34:57.623Z,21.40
2019-05-18T15:37:43.738Z,21.10
2019-05-18T15:40:29.302Z,20.80
2019-05-18T15:43:14.214Z,20.60
2019-05-18T15:45:59.026Z,20.50
2019-05-18T15:48:43.982Z,20.40
2019-05-18T15:51:29.266Z,20.30
2019-05-18T15:54:14.444Z,20.20
2019-05-18T15:56:59.307Z,20.20
2019-05-18T15:59:44.706Z,20.30
2019-05-18T16:02:29.809Z,20.20
2019-05-18T16:05:14.966Z,20.20
2019-05-18T16:08:00.162Z,20.10
2019-05-18T16:10:45.072Z,20.00
2019-05-18T16:13:29.773Z,20.00
2019-05-18T16:16:14.815Z,20.00
2019-05-18T16:19:00.030Z,20.00
2019-05-18T16:21:45.735Z,20.00
2019-05-18T16:24:30.871Z,19.90
2019-05-18T16:27:15.747Z,20.00
2019-05-18T16:30:00.625Z,19.90
2019-05-18T16:32:45.720Z,19.90
2019-05-18T16:35:30.823Z,19.70
2019-05-18T16:38:16.174Z,19.70
2019-05-18T16:41:00.898Z,19.70
2019-05-18T16:43:45.842Z,19.70
2019-05-18T16:46:30.653Z,19.60
2019-05-18T16:49:15.388Z,19.50
2019-05-18T16:52:00.064Z,19.30
2019-05-18T16:54:44.843Z,19.30
2019-05-18T16:57:29.658Z,19.20
2019-05-18T17:00:16.749Z,19.20
2019-05-18T17:03:02.022Z,19.20
2019-05-18T17:05:46.763Z,19.10
2019-05-18T17:08:31.633Z,19.10
2019-05-18T17:11:16.485Z,19.00
2019-05-18T17:14:01.681Z,19.00
2019-05-18T17:16:46.522Z,18.90
2019-05-18T17:19:32.270Z,18.80
2019-05-18T17:22:17.613Z,18.60
2019-05-18T17:25:04.179Z,18.10
2019-05-18T17:27:49.061Z,17.60
2019-05-18T17:30:33.835Z,17.40
2019-05-18T17:33:18.502Z,17.20
2019-05-18T17:36:03.777Z,17.10
2019-05-18T17:38:48.971Z,16.90
2019-05-18T17:41:34.073Z,16.70
2019-05-18T17:44:18.862Z,16.70
2019-05-18T17:47:04.573Z,16.50
2019-05-18T17:49:49.802Z,16.40
2019-05-18T17:52:34.594Z,16.30
2019-05-18T17:55:19.443Z,16.00
2019-05-18T17:58:04.533Z,16.00
2019-05-18T18:00:49.209Z,15.90
2019-05-18T18:03:34.067Z,15.80
2019-05-18T18:06:19.103Z,15.80
2019-05-18T18:09:06.332Z,15.70
2019-05-18T18:11:51.174Z,15.50
2019-05-18T18:14:36.099Z,15.50
2019-05-18T18:17:21.246Z,15.50
2019-05-18T18:20:07.070Z,15.50
2019-05-18T18:22:51.884Z,15.50
2019-05-18T18:25:36.807Z,15.30
2019-05-18T18:28:21.523Z,15.30
2019-05-18T18:31:06.464Z,15.20
2019-05-18T18:33:51.838Z,15.10
2019-05-18T18:36:36.460Z,15.10
2019-05-18T18:39:21.296Z,15.00
2019-05-18T18:42:07.376Z,15.00
2019-05-18T18:44:52.639Z,14.90
2019-05-18T18:47:37.871Z,15.00
2019-05-18T18:50:22.598Z,14.90
2019-05-18T18:53:07.507Z,14.90
2019-05-18T18:55:52.222Z,14.80
2019-05-18T18:58:36.862Z,14.80
2019-05-18T19:01:21.774Z,14.70
2019-05-18T19:04:06.577Z,14.70
2019-05-18T19:06:51.464Z,14.60
2019-05-18T19:09:37.529Z,14.60
2019-05-18T19:12:23.262Z,14.50
2019-05-18T19:15:09.398Z,14.50
2019-05-18T19:17:54.478Z,14.50
2019-05-18T19:20:39.334Z,14.40
2019-05-18T19:23:24.420Z,14.40
2019-05-18T19:26:09.061Z,14.40
2019-05-18T19:28:54.083Z,14.40
2019-05-18T19:31:38.900Z,14.30
2019-05-18T19:34:23.654Z,14.30
2019-05-18T19:37:08.365Z,14.30
2019-05-18T19:39:53.160Z,14.30
2019-05-18T19:42:37.831Z,14.30
2019-05-18T19:45:22.530Z,14.20
2019-05-18T19:48:09.119Z,14.20
2019-05-18T19:50:54.127Z,14.20
2019-05-18T19:53:38.946Z,14.20
2019-05-18T19:56:23.632Z,14.20
2019-05-18T19:59:08.435Z,14.20
2019-05-18T20:01:53.207Z,14.20
2019-05-18T20:04:38.051Z,14.20
2019-05-18T20:07:23.509Z,14.20
2019-05-18T20:10:08.943Z,14.30
2019-05-18T20:12:54.269Z,14.20
2019-05-18T20:15:39.016Z,14.20
2019-05-18T20:18:23.758Z,14.20
2019-05-18T20:21:08.531Z,14.10
2019-05-18T20:23:53.265Z,14.20
2019-05-18T20:26:38.065Z,14.20
2019-05-18T20:29:22.993Z,14.10
2019-05-18T20:32:07.803Z,14.20
2019-05-18T20:34:52.761Z,14.20
2019-05-18T20:37:38.230Z,14.10
2019-05-18T20:40:23.531Z,14.10
2019-05-18T20:43:08.767Z,14.10
2019-05-18T20:45:53.555Z,14.10
2019-05-18T20:48:39.854Z,14.10
2019-05-18T20:51:24.933Z,14.20
2019-05-18T20:54:09.702Z,14.10
2019-05-18T20:56:54.769Z,14.10
2019-05-18T20:59:40.121Z,14.20
2019-05-18T21:02:25.003Z,14.10
2019-05-18T21:05:11.751Z,14.20
2019-05-18T21:07:57.035Z,14.30
2019-05-18T21:10:43.068Z,14.30
2019-05-18T21:13:28.148Z,14.20
2019-05-18T21:16:14.301Z,14.30
2019-05-18T21:18:58.878Z,14.30
2019-05-18T21:21:43.849Z,14.30
2019-05-18T21:24:28.727Z,14.20
2019-05-18T21:27:13.508Z,14.20
2019-05-18T21:29:58.543Z,14.10
2019-05-18T21:32:43.347Z,14.10
2019-05-18T21:35:28.161Z,14.00
2019-05-18T21:38:12.954Z,13.80
2019-05-18T21:40:57.787Z,13.70
2019-05-18T21:43:43.697Z,13.70
2019-05-18T21:46:28.382Z,13.70
2019-05-18T21:49:13.349Z,13.70
2019-05-18T21:51:58.094Z,13.70
2019-05-18T21:54:43.120Z,13.70
2019-05-18T21:57:27.810Z,13.70
2019-05-18T22:00:13.074Z,13.80
2019-05-18T22:02:59.855Z,13.80
2019-05-18T22:05:44.677Z,13.80
2019-05-18T22:08:29.478Z,13.70
2019-05-18T22:11:14.438Z,13.70
2019-05-18T22:13:59.330Z,13.70
2019-05-18T22:16:44.118Z,13.60
2019-05-18T22:19:29.000Z,13.60
2019-05-18T22:22:13.762Z,13.50
2019-05-18T22:24:58.616Z,13.40
2019-05-18T22:27:43.344Z,13.40
2019-05-18T22:30:28.216Z,13.40
2019-05-18T22:33:13.411Z,13.30
2019-05-18T22:35:58.317Z,13.30
2019-05-18T22:38:43.387Z,13.20
2019-05-18T22:41:28.311Z,13.10
2019-05-18T22:44:13.627Z,13.10
2019-05-18T22:46:58.447Z,13.00
2019-05-18T22:49:43.139Z,12.90
2019-05-18T22:52:28.010Z,12.80
2019-05-18T22:55:13.330Z,12.80
2019-05-18T22:57:58.583Z,12.70
2019-05-18T23:00:43.505Z,12.60
2019-05-18T23:03:28.349Z,12.60
2019-05-18T23:06:13.010Z,12.60
2019-05-18T23:08:57.780Z,12.50
2019-05-18T23:11:42.561Z,12.50
2019-05-18T23:14:27.386Z,12.40
2019-05-18T23:17:12.075Z,12.30
2019-05-18T23:19:56.892Z,12.30
2019-05-18T23:22:41.762Z,12.20
2019-05-18T23:25:26.528Z,12.20
2019-05-18T23:28:11.689Z,12.20
2019-05-18T23:30:56.477Z,12.20
2019-05-18T23:33:41.507Z,12.10
2019-05-18T23:36:27.615Z,12.10
2019-05-18T23:39:12.391Z,12.10
2019-05-18T23:41:57.230Z,12.00
2019-05-18T23:44:42.126Z,11.90
2019-05-18T23:47:26.993Z,11.90
2019-05-18T23:50:11.841Z,11.90
2019-05-18T23:52:57.713Z,11.90
2019-05-18T23:55:42.455Z,11.90
2019-05-18T23:58:27.342Z,12.00
